»·PEaware :: N605LA KWHP-KSBA

N605LA :: KWHP-KSBA

FLIGHT INFORMATION

Flight Status: Arrived
Operator: Privately registered:
United States
More flights under this callsign
Pilot: Lucas B. (17570)
Aircraft: PIPER PA-18 SUPER CUB
(PA18)
More flights by this aircraft type
Origin: KWHP Whiteman
United States
Destination: KSBA Santa Barbara Mun
United States
More flights between these airports :: More routes between these airports
Route: +
File this flight plan on PilotEdge
Remarks:
Altitude:
(Current/Filed)
6,500ft
Speed:
(Current/Filed)
0kts
Departed: 22-May-20 07:12 PM
Arrived: 22-May-20 08:09 PM
Distance/Time
Traveled:
71nm/0:56
Distance/Time
To Go:
Arrived

Flight Plot

Page will automatically refresh every two minutes.


Map Options




Map Legend


Flown Route
Filed Route
Departure Airport
Arrival Airport
Navaid (VOR, NDB)
Fix

Horizontal Profiles

Position Reports

Time Latitude Longitude Heading Altitude Ground
Speed
22-May-20 19:06 34.261715 -118.413873 319 1003ft 0kts
22-May-20 19:07 34.261936 -118.415591 319 1003ft 13kts
22-May-20 19:08 34.263415 -118.416932 325 1003ft 0kts
22-May-20 19:09 34.263415 -118.416932 326 1003ft 0kts
22-May-20 19:10 34.263696 -118.417410 293 1003ft 0kts
22-May-20 19:11 34.258847 -118.413166 143 1230ft 59kts
22-May-20 19:12 34.244248 -118.402713 217 2224ft 71kts
22-May-20 19:13 34.251732 -118.425867 307 3208ft 88kts
22-May-20 19:14 34.263119 -118.450544 272 4162ft 86kts
22-May-20 19:15 34.266161 -118.479079 261 5037ft 84kts
22-May-20 19:16 34.267019 -118.507274 266 5849ft 85kts
22-May-20 19:18 34.270668 -118.535074 273 6475ft 90kts
22-May-20 19:19 34.275879 -118.563523 273 6470ft 83kts
22-May-20 19:20 34.280576 -118.592403 271 6426ft 89kts
22-May-20 19:21 34.284627 -118.621004 270 6472ft 84kts
22-May-20 19:22 34.287734 -118.649364 270 6456ft 85kts
22-May-20 19:23 34.289299 -118.678083 265 6410ft 84kts
22-May-20 19:24 34.290289 -118.705799 265 6452ft 78kts
22-May-20 19:25 34.290723 -118.732319 262 6462ft 80kts
22-May-20 19:26 34.290353 -118.760443 263 6371ft 83kts
22-May-20 19:27 34.291125 -118.786688 269 6499ft 70kts
22-May-20 19:28 34.293059 -118.811050 272 6548ft 76kts
22-May-20 19:29 34.293999 -118.828315 268 6500ft 80kts
22-May-20 19:30 34.294402 -118.854763 266 6505ft 77kts
22-May-20 19:31 34.293943 -118.879698 272 6578ft 75kts
22-May-20 19:32 34.296364 -118.906253 273 6511ft 81kts
22-May-20 19:33 34.299302 -118.933483 274 6447ft 81kts
22-May-20 19:34 34.301646 -118.960629 274 6427ft 78kts
22-May-20 19:35 34.303566 -118.986722 273 6453ft 77kts
22-May-20 19:35 34.305730 -119.008495 276 6469ft 76kts
22-May-20 19:37 34.308640 -119.038434 279 6488ft 78kts
22-May-20 19:37 34.312180 -119.060226 283 6482ft 78kts
22-May-20 19:38 34.318373 -119.085697 286 6464ft 80kts
22-May-20 19:39 34.322986 -119.111795 277 6458ft 78kts
22-May-20 19:40 34.325900 -119.138162 277 6458ft 78kts
22-May-20 19:41 34.328904 -119.164415 277 6458ft 78kts
22-May-20 19:42 34.332013 -119.190686 278 6458ft 78kts
22-May-20 19:43 34.335213 -119.216876 278 6457ft 78kts
22-May-20 19:44 34.338279 -119.243085 276 6457ft 78kts
22-May-20 19:45 34.340533 -119.268923 273 6457ft 78kts
22-May-20 19:46 34.344056 -119.294912 285 6457ft 78kts
22-May-20 19:47 34.351250 -119.320014 286 6457ft 79kts
22-May-20 19:48 34.359101 -119.345004 287 6457ft 79kts
22-May-20 19:49 34.366564 -119.370404 284 6457ft 79kts
22-May-20 19:50 34.373757 -119.397202 283 6189ft 89kts
22-May-20 19:51 34.379570 -119.424825 275 6206ft 77kts
22-May-20 19:52 34.383300 -119.449098 273 6490ft 76kts
22-May-20 19:53 34.388318 -119.476888 276 6513ft 88kts
22-May-20 19:54 34.394065 -119.506226 277 6438ft 85kts
22-May-20 19:55 34.399774 -119.534668 275 5810ft 88kts
22-May-20 19:56 34.405495 -119.562322 274 5396ft 78kts
22-May-20 19:57 34.410605 -119.588312 277 4885ft 87kts
22-May-20 19:58 34.415579 -119.619112 273 3921ft 93kts
22-May-20 19:59 34.421060 -119.647864 278 3161ft 77kts
22-May-20 20:00 34.426677 -119.673928 274 2666ft 86kts
22-May-20 20:01 34.431729 -119.704941 278 2245ft 105kts
22-May-20 20:02 34.438932 -119.737818 263 2167ft 100kts
22-May-20 20:03 34.436443 -119.771663 251 1973ft 90kts
22-May-20 20:04 34.434749 -119.801530 312 1714ft 93kts
22-May-20 20:05 34.453995 -119.818088 284 1233ft 80kts
22-May-20 20:06 34.447999 -119.840356 210 665ft 68kts
22-May-20 20:07 34.433446 -119.841289 162 116ft 50kts
22-May-20 20:08 34.426696 -119.838801 93 16ft 7kts
22-May-20 20:09 34.424418 -119.837634 164 16ft 16kts

Navigation Log

Ident Type
Flight plan parsing failed, navigation log unavailable